sensor_id;sensor_type;location;lat;lon;timestamp;pressure;altitude;pressure_sealevel;temperature;humidity
58385;BME280;44185;47.844;8.966;2023-07-24T00:02:17;95548.75;;;16.22;100.00
58385;BME280;44185;47.844;8.966;2023-07-24T00:04:42;95555.94;;;16.22;100.00
58385;BME280;44185;47.844;8.966;2023-07-24T00:07:08;95557.03;;;16.28;100.00
58385;BME280;44185;47.844;8.966;2023-07-24T00:09:33;95562.63;;;16.33;100.00
58385;BME280;44185;47.844;8.966;2023-07-24T00:11:58;95558.13;;;16.33;100.00
58385;BME280;44185;47.844;8.966;2023-07-24T00:14:25;95550.22;;;16.25;100.00
58385;BME280;44185;47.844;8.966;2023-07-24T00:16:51;95550.50;;;16.15;100.00
58385;BME280;44185;47.844;8.966;2023-07-24T00:19:16;95541.22;;;16.26;100.00
58385;BME280;44185;47.844;8.966;2023-07-24T00:21:41;95539.28;;;16.20;100.00
58385;BME280;44185;47.844;8.966;2023-07-24T00:24:08;95544.25;;;16.08;100.00
58385;BME280;44185;47.844;8.966;2023-07-24T00:26:33;95541.94;;;16.05;100.00
58385;BME280;44185;47.844;8.966;2023-07-24T00:28:59;95540.44;;;16.02;100.00
58385;BME280;44185;47.844;8.966;2023-07-24T00:31:26;95548.69;;;16.16;100.00
58385;BME280;44185;47.844;8.966;2023-07-24T00:33:51;95540.84;;;16.14;100.00
58385;BME280;44185;47.844;8.966;2023-07-24T00:36:17;95524.09;;;16.05;100.00
58385;BME280;44185;47.844;8.966;2023-07-24T00:38:42;95536.84;;;15.79;100.00
58385;BME280;44185;47.844;8.966;2023-07-24T00:41:08;95538.06;;;15.92;100.00
58385;BME280;44185;47.844;8.966;2023-07-24T00:43:33;95524.38;;;16.10;100.00
58385;BME280;44185;47.844;8.966;2023-07-24T00:45:59;95520.94;;;16.01;100.00
58385;BME280;44185;47.844;8.966;2023-07-24T00:48:26;95520.94;;;15.86;100.00
58385;BME280;44185;47.844;8.966;2023-07-24T00:50:52;95531.91;;;15.76;100.00
58385;BME280;44185;47.844;8.966;2023-07-24T00:53:19;95548.91;;;15.90;100.00
58385;BME280;44185;47.844;8.966;2023-07-24T00:55:45;95595.28;;;16.05;100.00
58385;BME280;44185;47.844;8.966;2023-07-24T00:58:11;95718.38;;;16.10;100.00
58385;BME280;44185;47.844;8.966;2023-07-24T01:00:37;95770.44;;;16.06;100.00
58385;BME280;44185;47.844;8.966;2023-07-24T01:03:03;95746.28;;;15.99;100.00
58385;BME280;44185;47.844;8.966;2023-07-24T01:05:30;95718.13;;;15.96;100.00
58385;BME280;44185;47.844;8.966;2023-07-24T01:07:55;95691.91;;;16.00;100.00
58385;BME280;44185;47.844;8.966;2023-07-24T01:10:20;95647.59;;;16.14;100.00
58385;BME280;44185;47.844;8.966;2023-07-24T01:12:56;95620.50;;;16.02;100.00
58385;BME280;44185;47.844;8.966;2023-07-24T01:15:26;95608.69;;;15.81;100.00
58385;BME280;44185;47.844;8.966;2023-07-24T01:17:59;95596.19;;;15.82;100.00
58385;BME280;44185;47.844;8.966;2023-07-24T01:20:26;95568.13;;;15.86;100.00
58385;BME280;44185;47.844;8.966;2023-07-24T01:23:14;95545.41;;;15.90;100.00
58385;BME280;44185;47.844;8.966;2023-07-24T01:25:53;95541.38;;;15.79;100.00
58385;BME280;44185;47.844;8.966;2023-07-24T01:28:18;95551.84;;;15.65;100.00
58385;BME280;44185;47.844;8.966;2023-07-24T01:30:43;95555.56;;;15.56;100.00
58385;BME280;44185;47.844;8.966;2023-07-24T01:33:09;95560.19;;;15.62;100.00
58385;BME280;44185;47.844;8.966;2023-07-24T01:35:34;95530.59;;;15.72;100.00
58385;BME280;44185;47.844;8.966;2023-07-24T01:38:01;95527.66;;;15.82;100.00
58385;BME280;44185;47.844;8.966;2023-07-24T01:40:28;95530.78;;;15.71;100.00
58385;BME280;44185;47.844;8.966;2023-07-24T01:42:55;95531.84;;;15.61;100.00
58385;BME280;44185;47.844;8.966;2023-07-24T01:45:21;95512.94;;;15.71;100.00
58385;BME280;44185;47.844;8.966;2023-07-24T01:47:47;95504.84;;;15.79;100.00
58385;BME280;44185;47.844;8.966;2023-07-24T01:50:12;95516.50;;;15.63;100.00
58385;BME280;44185;47.844;8.966;2023-07-24T01:52:38;95506.09;;;15.53;100.00
58385;BME280;44185;47.844;8.966;2023-07-24T01:55:04;95503.63;;;15.52;100.00
58385;BME280;44185;47.844;8.966;2023-07-24T01:57:29;95508.41;;;15.41;100.00
58385;BME280;44185;47.844;8.966;2023-07-24T01:59:56;95517.09;;;15.35;100.00
58385;BME280;44185;47.844;8.966;2023-07-24T02:02:21;95515.50;;;15.49;100.00
58385;BME280;44185;47.844;8.966;2023-07-24T02:04:47;95522.09;;;15.53;100.00
58385;BME280;44185;47.844;8.966;2023-07-24T02:07:12;95516.41;;;15.56;100.00
58385;BME280;44185;47.844;8.966;2023-07-24T02:09:38;95510.28;;;15.71;100.00
58385;BME280;44185;47.844;8.966;2023-07-24T02:12:04;95517.44;;;15.71;100.00
58385;BME280;44185;47.844;8.966;2023-07-24T02:14:30;95514.88;;;15.62;100.00
58385;BME280;44185;47.844;8.966;2023-07-24T02:16:56;95518.88;;;15.58;100.00
58385;BME280;44185;47.844;8.966;2023-07-24T02:19:23;95514.94;;;15.54;100.00
58385;BME280;44185;47.844;8.966;2023-07-24T02:21:48;95515.28;;;15.51;100.00
58385;BME280;44185;47.844;8.966;2023-07-24T02:24:13;95521.28;;;15.53;100.00
58385;BME280;44185;47.844;8.966;2023-07-24T02:26:39;95522.56;;;15.57;100.00
58385;BME280;44185;47.844;8.966;2023-07-24T02:29:04;95515.13;;;15.52;100.00
58385;BME280;44185;47.844;8.966;2023-07-24T02:31:30;95510.16;;;15.49;100.00
58385;BME280;44185;47.844;8.966;2023-07-24T02:33:56;95514.72;;;15.40;100.00
58385;BME280;44185;47.844;8.966;2023-07-24T02:36:23;95504.06;;;15.40;100.00
58385;BME280;44185;47.844;8.966;2023-07-24T02:38:48;95494.72;;;15.44;100.00
58385;BME280;44185;47.844;8.966;2023-07-24T02:41:13;95490.56;;;15.42;100.00
58385;BME280;44185;47.844;8.966;2023-07-24T02:43:39;95494.44;;;15.39;100.00
58385;BME280;44185;47.844;8.966;2023-07-24T02:46:04;95502.38;;;15.24;100.00
58385;BME280;44185;47.844;8.966;2023-07-24T02:48:30;95494.94;;;15.34;100.00
58385;BME280;44185;47.844;8.966;2023-07-24T02:50:56;95493.94;;;15.36;100.00
58385;BME280;44185;47.844;8.966;2023-07-24T02:53:23;95490.44;;;15.35;100.00
58385;BME280;44185;47.844;8.966;2023-07-24T02:55:48;95471.88;;;15.27;100.00
58385;BME280;44185;47.844;8.966;2023-07-24T02:58:14;95490.44;;;15.35;100.00
58385;BME280;44185;47.844;8.966;2023-07-24T03:00:39;95485.94;;;15.36;100.00
58385;BME280;44185;47.844;8.966;2023-07-24T03:03:05;95495.06;;;15.41;100.00
58385;BME280;44185;47.844;8.966;2023-07-24T03:05:31;95488.97;;;15.32;100.00
58385;BME280;44185;47.844;8.966;2023-07-24T03:07:57;95492.59;;;15.16;100.00
58385;BME280;44185;47.844;8.966;2023-07-24T03:10:23;95494.03;;;15.27;100.00
58385;BME280;44185;47.844;8.966;2023-07-24T03:12:49;95504.50;;;15.29;100.00
58385;BME280;44185;47.844;8.966;2023-07-24T03:15:14;95517.44;;;15.17;100.00
58385;BME280;44185;47.844;8.966;2023-07-24T03:17:39;95508.94;;;15.13;100.00
58385;BME280;44185;47.844;8.966;2023-07-24T03:20:09;95499.88;;;15.07;100.00
58385;BME280;44185;47.844;8.966;2023-07-24T03:22:34;95502.63;;;15.14;100.00
58385;BME280;44185;47.844;8.966;2023-07-24T03:25:01;95495.53;;;15.06;100.00
58385;BME280;44185;47.844;8.966;2023-07-24T03:27:27;95493.56;;;15.00;100.00
58385;BME280;44185;47.844;8.966;2023-07-24T03:29:53;95502.03;;;14.80;100.00
58385;BME280;44185;47.844;8.966;2023-07-24T03:32:18;95497.81;;;14.62;100.00
58385;BME280;44185;47.844;8.966;2023-07-24T03:34:43;95507.00;;;14.60;100.00
58385;BME280;44185;47.844;8.966;2023-07-24T03:37:09;95495.75;;;14.73;100.00
58385;BME280;44185;47.844;8.966;2023-07-24T03:39:34;95490.34;;;14.81;100.00
58385;BME280;44185;47.844;8.966;2023-07-24T03:42:01;95498.72;;;14.78;100.00
58385;BME280;44185;47.844;8.966;2023-07-24T03:44:27;95494.88;;;14.81;100.00
58385;BME280;44185;47.844;8.966;2023-07-24T03:46:52;95484.22;;;14.81;100.00
58385;BME280;44185;47.844;8.966;2023-07-24T03:49:18;95486.41;;;14.77;100.00
58385;BME280;44185;47.844;8.966;2023-07-24T03:51:43;95476.53;;;14.86;100.00
58385;BME280;44185;47.844;8.966;2023-07-24T03:54:09;95469.16;;;14.96;100.00
58385;BME280;44185;47.844;8.966;2023-07-24T03:56:34;95478.50;;;14.84;100.00
58385;BME280;44185;47.844;8.966;2023-07-24T03:59:01;95479.53;;;14.83;100.00
58385;BME280;44185;47.844;8.966;2023-07-24T04:01:26;95474.75;;;14.78;100.00
58385;BME280;44185;47.844;8.966;2023-07-24T04:03:53;95461.66;;;14.92;100.00
58385;BME280;44185;47.844;8.966;2023-07-24T04:06:18;95457.16;;;14.92;100.00
58385;BME280;44185;47.844;8.966;2023-07-24T04:08:43;95458.88;;;14.85;100.00
58385;BME280;44185;47.844;8.966;2023-07-24T04:11:09;95453.06;;;14.81;100.00
58385;BME280;44185;47.844;8.966;2023-07-24T04:13:34;95454.38;;;14.85;100.00
58385;BME280;44185;47.844;8.966;2023-07-24T04:16:01;95455.06;;;14.87;100.00
58385;BME280;44185;47.844;8.966;2023-07-24T04:18:26;95458.84;;;14.93;100.00
58385;BME280;44185;47.844;8.966;2023-07-24T04:20:53;95462.84;;;14.89;100.00
58385;BME280;44185;47.844;8.966;2023-07-24T04:23:18;95461.59;;;14.76;100.00
58385;BME280;44185;47.844;8.966;2023-07-24T04:25:43;95464.38;;;14.83;100.00
58385;BME280;44185;47.844;8.966;2023-07-24T04:28:09;95465.84;;;14.94;100.00
58385;BME280;44185;47.844;8.966;2023-07-24T04:30:34;95468.53;;;15.09;100.00
58385;BME280;44185;47.844;8.966;2023-07-24T04:33:01;95469.88;;;15.05;100.00
58385;BME280;44185;47.844;8.966;2023-07-24T04:35:26;95472.47;;;15.14;100.00
58385;BME280;44185;47.844;8.966;2023-07-24T04:37:53;95466.69;;;15.10;100.00
58385;BME280;44185;47.844;8.966;2023-07-24T04:40:18;95462.31;;;15.17;100.00
58385;BME280;44185;47.844;8.966;2023-07-24T04:42:43;95477.81;;;15.14;100.00
58385;BME280;44185;47.844;8.966;2023-07-24T04:45:09;95476.47;;;15.18;100.00
58385;BME280;44185;47.844;8.966;2023-07-24T04:47:35;95488.31;;;15.15;100.00
58385;BME280;44185;47.844;8.966;2023-07-24T04:50:02;95490.69;;;15.10;100.00
58385;BME280;44185;47.844;8.966;2023-07-24T04:52:27;95510.06;;;15.19;100.00
58385;BME280;44185;47.844;8.966;2023-07-24T04:54:53;95525.72;;;15.22;100.00
58385;BME280;44185;47.844;8.966;2023-07-24T04:57:18;95525.16;;;15.27;100.00
58385;BME280;44185;47.844;8.966;2023-07-24T04:59:43;95542.56;;;15.38;100.00
58385;BME280;44185;47.844;8.966;2023-07-24T05:02:09;95547.75;;;15.39;100.00
58385;BME280;44185;47.844;8.966;2023-07-24T05:04:34;95565.56;;;15.39;100.00
58385;BME280;44185;47.844;8.966;2023-07-24T05:07:01;95565.72;;;15.37;100.00
58385;BME280;44185;47.844;8.966;2023-07-24T05:09:27;95578.53;;;15.42;100.00
58385;BME280;44185;47.844;8.966;2023-07-24T05:11:53;95594.69;;;15.40;100.00
58385;BME280;44185;47.844;8.966;2023-07-24T05:14:18;95618.81;;;15.47;100.00
58385;BME280;44185;47.844;8.966;2023-07-24T05:16:43;95637.84;;;15.44;100.00
58385;BME280;44185;47.844;8.966;2023-07-24T05:19:09;95677.84;;;15.44;100.00
58385;BME280;44185;47.844;8.966;2023-07-24T05:21:34;95721.19;;;15.38;100.00
58385;BME280;44185;47.844;8.966;2023-07-24T05:24:01;95740.34;;;15.65;100.00
58385;BME280;44185;47.844;8.966;2023-07-24T05:26:27;95741.25;;;15.81;100.00
58385;BME280;44185;47.844;8.966;2023-07-24T05:28:53;95752.22;;;15.86;100.00
58385;BME280;44185;47.844;8.966;2023-07-24T05:31:19;95754.94;;;16.01;100.00
58385;BME280;44185;47.844;8.966;2023-07-24T05:33:44;95754.66;;;16.19;100.00
58385;BME280;44185;47.844;8.966;2023-07-24T05:36:09;95762.66;;;16.19;100.00
58385;BME280;44185;47.844;8.966;2023-07-24T05:38:35;95753.34;;;16.15;100.00
58385;BME280;44185;47.844;8.966;2023-07-24T05:41:03;95748.50;;;16.19;100.00
58385;BME280;44185;47.844;8.966;2023-07-24T05:43:29;95746.81;;;16.18;100.00
58385;BME280;44185;47.844;8.966;2023-07-24T05:45:55;95745.16;;;16.17;100.00
58385;BME280;44185;47.844;8.966;2023-07-24T05:48:22;95735.97;;;16.19;100.00
58385;BME280;44185;47.844;8.966;2023-07-24T05:50:47;95713.59;;;16.20;100.00
58385;BME280;44185;47.844;8.966;2023-07-24T05:53:13;95676.03;;;16.22;100.00
58385;BME280;44185;47.844;8.966;2023-07-24T05:55:38;95601.56;;;16.27;100.00
58385;BME280;44185;47.844;8.966;2023-07-24T05:58:05;95614.28;;;16.25;100.00
58385;BME280;44185;47.844;8.966;2023-07-24T06:00:31;95615.41;;;16.31;100.00
58385;BME280;44185;47.844;8.966;2023-07-24T06:02:56;95596.34;;;16.34;100.00
58385;BME280;44185;47.844;8.966;2023-07-24T06:05:22;95569.56;;;16.42;100.00
58385;BME280;44185;47.844;8.966;2023-07-24T06:07:47;95568.53;;;16.43;100.00
58385;BME280;44185;47.844;8.966;2023-07-24T06:10:13;95554.22;;;16.51;100.00
58385;BME280;44185;47.844;8.966;2023-07-24T06:12:38;95547.31;;;16.57;100.00
58385;BME280;44185;47.844;8.966;2023-07-24T06:15:06;95555.53;;;16.55;100.00
58385;BME280;44185;47.844;8.966;2023-07-24T06:17:32;95534.91;;;16.49;100.00
58385;BME280;44185;47.844;8.966;2023-07-24T06:19:57;95511.91;;;16.70;100.00
58385;BME280;44185;47.844;8.966;2023-07-24T06:22:23;95501.50;;;16.75;100.00
58385;BME280;44185;47.844;8.966;2023-07-24T06:24:48;95496.66;;;16.64;100.00
58385;BME280;44185;47.844;8.966;2023-07-24T06:27:14;95499.72;;;16.61;100.00
58385;BME280;44185;47.844;8.966;2023-07-24T06:29:39;95506.72;;;16.47;100.00
58385;BME280;44185;47.844;8.966;2023-07-24T06:32:07;95519.81;;;16.41;100.00
58385;BME280;44185;47.844;8.966;2023-07-24T06:34:32;95525.16;;;16.41;100.00
58385;BME280;44185;47.844;8.966;2023-07-24T06:36:58;95529.09;;;16.45;100.00
58385;BME280;44185;47.844;8.966;2023-07-24T06:39:23;95534.91;;;16.49;100.00
58385;BME280;44185;47.844;8.966;2023-07-24T06:41:51;95555.00;;;16.45;100.00
58385;BME280;44185;47.844;8.966;2023-07-24T06:44:16;95564.47;;;16.48;100.00
58385;BME280;44185;47.844;8.966;2023-07-24T06:46:42;95565.66;;;16.60;100.00
58385;BME280;44185;47.844;8.966;2023-07-24T06:49:09;95567.16;;;16.85;100.00
58385;BME280;44185;47.844;8.966;2023-07-24T06:51:34;95560.59;;;17.09;100.00
58385;BME280;44185;47.844;8.966;2023-07-24T06:54:00;95576.09;;;17.58;100.00
58385;BME280;44185;47.844;8.966;2023-07-24T06:56:25;95580.69;;;18.29;100.00
58385;BME280;44185;47.844;8.966;2023-07-24T06:58:50;95568.66;;;18.53;100.00
58385;BME280;44185;47.844;8.966;2023-07-24T07:01:16;95572.19;;;18.61;100.00
58385;BME280;44185;47.844;8.966;2023-07-24T07:03:41;95593.47;;;18.69;100.00
58385;BME280;44185;47.844;8.966;2023-07-24T07:06:08;95579.97;;;18.42;100.00
58385;BME280;44185;47.844;8.966;2023-07-24T07:08:33;95579.31;;;18.40;100.00
58385;BME280;44185;47.844;8.966;2023-07-24T07:11:00;95586.25;;;18.20;100.00
58385;BME280;44185;47.844;8.966;2023-07-24T07:13:26;95611.72;;;17.87;100.00
58385;BME280;44185;47.844;8.966;2023-07-24T07:15:51;95613.94;;;17.84;100.00
58385;BME280;44185;47.844;8.966;2023-07-24T07:18:17;95614.84;;;17.62;100.00
58385;BME280;44185;47.844;8.966;2023-07-24T07:20:45;95603.34;;;17.68;100.00
58385;BME280;44185;47.844;8.966;2023-07-24T07:23:12;95604.63;;;17.73;100.00
58385;BME280;44185;47.844;8.966;2023-07-24T07:25:38;95599.81;;;17.68;100.00
58385;BME280;44185;47.844;8.966;2023-07-24T07:28:03;95595.63;;;17.81;100.00
58385;BME280;44185;47.844;8.966;2023-07-24T07:30:29;95595.75;;;17.72;100.00
58385;BME280;44185;47.844;8.966;2023-07-24T07:32:54;95594.53;;;17.75;100.00
58385;BME280;44185;47.844;8.966;2023-07-24T07:35:19;95598.53;;;17.86;100.00
58385;BME280;44185;47.844;8.966;2023-07-24T07:37:45;95600.19;;;17.87;100.00
58385;BME280;44185;47.844;8.966;2023-07-24T07:40:13;95599.06;;;18.03;100.00
58385;BME280;44185;47.844;8.966;2023-07-24T07:42:38;95611.09;;;18.14;100.00
58385;BME280;44185;47.844;8.966;2023-07-24T07:45:05;95624.28;;;18.44;100.00
58385;BME280;44185;47.844;8.966;2023-07-24T07:47:30;95632.19;;;18.60;100.00
58385;BME280;44185;47.844;8.966;2023-07-24T07:49:56;95623.53;;;18.64;100.00
58385;BME280;44185;47.844;8.966;2023-07-24T07:52:21;95621.41;;;18.53;100.00
58385;BME280;44185;47.844;8.966;2023-07-24T07:54:46;95600.19;;;18.51;100.00
58385;BME280;44185;47.844;8.966;2023-07-24T07:57:13;95601.13;;;18.37;100.00
58385;BME280;44185;47.844;8.966;2023-07-24T07:59:39;95587.63;;;18.52;100.00
58385;BME280;44185;47.844;8.966;2023-07-24T08:02:04;95584.78;;;18.60;100.00
58385;BME280;44185;47.844;8.966;2023-07-24T08:04:30;95572.84;;;18.70;100.00
58385;BME280;44185;47.844;8.966;2023-07-24T08:06:55;95562.56;;;18.73;100.00
58385;BME280;44185;47.844;8.966;2023-07-24T08:09:21;95572.03;;;18.69;100.00
58385;BME280;44185;47.844;8.966;2023-07-24T08:11:46;95562.09;;;18.56;100.00
58385;BME280;44185;47.844;8.966;2023-07-24T08:14:13;95544.38;;;18.55;100.00
58385;BME280;44185;47.844;8.966;2023-07-24T08:16:38;95539.59;;;18.50;100.00
58385;BME280;44185;47.844;8.966;2023-07-24T08:19:04;95525.19;;;18.58;100.00
58385;BME280;44185;47.844;8.966;2023-07-24T08:21:29;95507.31;;;18.65;100.00
58385;BME280;44185;47.844;8.966;2023-07-24T08:23:54;95507.13;;;18.81;100.00
58385;BME280;44185;47.844;8.966;2023-07-24T08:26:20;95504.06;;;18.90;100.00
58385;BME280;44185;47.844;8.966;2023-07-24T08:28:45;95509.22;;;18.99;100.00
58385;BME280;44185;47.844;8.966;2023-07-24T08:31:12;95519.31;;;18.90;100.00
58385;BME280;44185;47.844;8.966;2023-07-24T08:33:38;95518.91;;;18.86;100.00
58385;BME280;44185;47.844;8.966;2023-07-24T08:36:05;95520.72;;;18.65;100.00
58385;BME280;44185;47.844;8.966;2023-07-24T08:38:31;95537.41;;;18.74;100.00
58385;BME280;44185;47.844;8.966;2023-07-24T08:41:04;95557.66;;;18.84;100.00
58385;BME280;44185;47.844;8.966;2023-07-24T08:43:29;95548.81;;;19.04;100.00
58385;BME280;44185;47.844;8.966;2023-07-24T08:45:56;95535.81;;;19.00;100.00
58385;BME280;44185;47.844;8.966;2023-07-24T08:48:25;95517.44;;;18.84;100.00
58385;BME280;44185;47.844;8.966;2023-07-24T08:50:51;95492.31;;;18.92;100.00
58385;BME280;44185;47.844;8.966;2023-07-24T08:53:18;95486.53;;;19.01;100.00
58385;BME280;44185;47.844;8.966;2023-07-24T08:55:45;95478.28;;;19.17;100.00
58385;BME280;44185;47.844;8.966;2023-07-24T08:58:12;95472.16;;;19.23;100.00
58385;BME280;44185;47.844;8.966;2023-07-24T09:00:38;95472.34;;;19.55;100.00
58385;BME280;44185;47.844;8.966;2023-07-24T09:03:03;95483.06;;;19.62;100.00
58385;BME280;44185;47.844;8.966;2023-07-24T09:05:30;95491.25;;;19.88;100.00
58385;BME280;44185;47.844;8.966;2023-07-24T09:07:56;95487.88;;;20.27;100.00
58385;BME280;44185;47.844;8.966;2023-07-24T09:10:24;95484.72;;;20.37;100.00
58385;BME280;44185;47.844;8.966;2023-07-24T09:12:49;95485.34;;;20.39;100.00
58385;BME280;44185;47.844;8.966;2023-07-24T09:15:15;95493.22;;;20.33;100.00
58385;BME280;44185;47.844;8.966;2023-07-24T09:17:48;95484.72;;;20.83;100.00
58385;BME280;44185;47.844;8.966;2023-07-24T09:20:13;95486.38;;;20.77;100.00
58385;BME280;44185;47.844;8.966;2023-07-24T09:22:47;95469.63;;;21.14;100.00
58385;BME280;44185;47.844;8.966;2023-07-24T09:25:13;95473.66;;;21.23;100.00
58385;BME280;44185;47.844;8.966;2023-07-24T09:27:39;95490.03;;;21.48;100.00
58385;BME280;44185;47.844;8.966;2023-07-24T09:30:12;95491.75;;;21.42;100.00
58385;BME280;44185;47.844;8.966;2023-07-24T09:32:38;95487.34;;;21.48;100.00
58385;BME280;44185;47.844;8.966;2023-07-24T09:35:04;95489.41;;;21.71;100.00
58385;BME280;44185;47.844;8.966;2023-07-24T09:37:32;95482.03;;;21.41;96.89
58385;BME280;44185;47.844;8.966;2023-07-24T09:39:59;95470.44;;;21.15;97.67
58385;BME280;44185;47.844;8.966;2023-07-24T09:42:29;95452.72;;;21.07;100.00
58385;BME280;44185;47.844;8.966;2023-07-24T09:44:55;95442.41;;;20.97;100.00
58385;BME280;44185;47.844;8.966;2023-07-24T09:47:20;95430.97;;;20.76;100.00
58385;BME280;44185;47.844;8.966;2023-07-24T09:49:46;95414.97;;;20.88;100.00
58385;BME280;44185;47.844;8.966;2023-07-24T09:52:13;95422.03;;;21.15;100.00
58385;BME280;44185;47.844;8.966;2023-07-24T09:54:43;95425.66;;;21.27;100.00
58385;BME280;44185;47.844;8.966;2023-07-24T09:57:14;95412.75;;;21.36;100.00
58385;BME280;44185;47.844;8.966;2023-07-24T09:59:40;95404.38;;;21.63;100.00
58385;BME280;44185;47.844;8.966;2023-07-24T10:02:08;95403.13;;;21.47;100.00
58385;BME280;44185;47.844;8.966;2023-07-24T10:04:36;95388.16;;;21.51;100.00
58385;BME280;44185;47.844;8.966;2023-07-24T10:07:03;95376.34;;;21.52;100.00
58385;BME280;44185;47.844;8.966;2023-07-24T10:09:29;95369.47;;;21.56;100.00
58385;BME280;44185;47.844;8.966;2023-07-24T10:11:55;95382.09;;;21.37;100.00
58385;BME280;44185;47.844;8.966;2023-07-24T10:14:23;95396.16;;;21.58;100.00
58385;BME280;44185;47.844;8.966;2023-07-24T10:16:49;95437.75;;;21.62;100.00
58385;BME280;44185;47.844;8.966;2023-07-24T10:19:15;95497.84;;;21.56;100.00
58385;BME280;44185;47.844;8.966;2023-07-24T10:21:44;95532.75;;;21.37;100.00
58385;BME280;44185;47.844;8.966;2023-07-24T10:24:10;95547.81;;;21.19;100.00
58385;BME280;44185;47.844;8.966;2023-07-24T10:26:35;95552.00;;;21.08;100.00
58385;BME280;44185;47.844;8.966;2023-07-24T10:29:01;95562.25;;;20.86;100.00
58385;BME280;44185;47.844;8.966;2023-07-24T10:33:53;95573.31;;;20.57;100.00
58385;BME280;44185;47.844;8.966;2023-07-24T10:36:19;95573.56;;;20.49;100.00
58385;BME280;44185;47.844;8.966;2023-07-24T10:38:46;95585.63;;;20.12;100.00
58385;BME280;44185;47.844;8.966;2023-07-24T10:41:12;95601.16;;;19.69;100.00
58385;BME280;44185;47.844;8.966;2023-07-24T10:43:41;95595.53;;;19.43;100.00
58385;BME280;44185;47.844;8.966;2023-07-24T10:46:08;95587.19;;;19.11;100.00
58385;BME280;44185;47.844;8.966;2023-07-24T10:48:35;95580.78;;;18.98;100.00
58385;BME280;44185;47.844;8.966;2023-07-24T10:51:06;95572.69;;;18.85;100.00
58385;BME280;44185;47.844;8.966;2023-07-24T10:53:31;95561.69;;;18.66;100.00
58385;BME280;44185;47.844;8.966;2023-07-24T10:55:57;95571.13;;;18.48;100.00
58385;BME280;44185;47.844;8.966;2023-07-24T10:58:25;95555.78;;;18.28;100.00
58385;BME280;44185;47.844;8.966;2023-07-24T11:00:51;95557.16;;;18.17;100.00
58385;BME280;44185;47.844;8.966;2023-07-24T11:03:17;95549.78;;;17.90;100.00
58385;BME280;44185;47.844;8.966;2023-07-24T11:05:46;95545.78;;;17.79;100.00
58385;BME280;44185;47.844;8.966;2023-07-24T11:08:13;95561.13;;;17.64;100.00
58385;BME280;44185;47.844;8.966;2023-07-24T11:10:44;95579.09;;;17.48;100.00
58385;BME280;44185;47.844;8.966;2023-07-24T11:13:10;95575.72;;;17.39;100.00
58385;BME280;44185;47.844;8.966;2023-07-24T11:15:35;95571.97;;;17.33;100.00
58385;BME280;44185;47.844;8.966;2023-07-24T11:18:01;95558.84;;;17.39;100.00
58385;BME280;44185;47.844;8.966;2023-07-24T11:20:26;95552.28;;;17.41;100.00
58385;BME280;44185;47.844;8.966;2023-07-24T11:22:57;95525.06;;;17.31;100.00
58385;BME280;44185;47.844;8.966;2023-07-24T11:25:23;95502.25;;;17.13;100.00
58385;BME280;44185;47.844;8.966;2023-07-24T11:27:49;95503.72;;;16.94;100.00
58385;BME280;44185;47.844;8.966;2023-07-24T11:30:19;95527.84;;;16.78;100.00
58385;BME280;44185;47.844;8.966;2023-07-24T11:32:46;95571.78;;;16.76;100.00
58385;BME280;44185;47.844;8.966;2023-07-24T11:35:12;95617.22;;;16.61;100.00
58385;BME280;44185;47.844;8.966;2023-07-24T11:37:37;95609.22;;;16.61;100.00
58385;BME280;44185;47.844;8.966;2023-07-24T11:40:05;95552.72;;;16.79;100.00
58385;BME280;44185;47.844;8.966;2023-07-24T11:42:31;95516.03;;;16.88;100.00
58385;BME280;44185;47.844;8.966;2023-07-24T11:45:00;95477.41;;;16.90;100.00
58385;BME280;44185;47.844;8.966;2023-07-24T11:47:26;95481.47;;;16.86;100.00
58385;BME280;44185;47.844;8.966;2023-07-24T11:49:59;95499.34;;;17.08;100.00
58385;BME280;44185;47.844;8.966;2023-07-24T11:52:25;95539.22;;;17.25;100.00
58385;BME280;44185;47.844;8.966;2023-07-24T11:54:55;95524.88;;;17.32;100.00
58385;BME280;44185;47.844;8.966;2023-07-24T11:57:22;95493.88;;;17.38;100.00
58385;BME280;44185;47.844;8.966;2023-07-24T11:59:48;95492.03;;;17.74;100.00
58385;BME280;44185;47.844;8.966;2023-07-24T12:02:13;95502.97;;;17.79;100.00
58385;BME280;44185;47.844;8.966;2023-07-24T12:04:39;95501.53;;;18.12;100.00
58385;BME280;44185;47.844;8.966;2023-07-24T12:07:07;95497.91;;;18.27;100.00
58385;BME280;44185;47.844;8.966;2023-07-24T12:09:33;95491.66;;;17.77;100.00
58385;BME280;44185;47.844;8.966;2023-07-24T12:11:59;95488.34;;;17.75;100.00
58385;BME280;44185;47.844;8.966;2023-07-24T12:14:25;95468.44;;;17.85;100.00
58385;BME280;44185;47.844;8.966;2023-07-24T12:17:00;95463.09;;;18.27;100.00
58385;BME280;44185;47.844;8.966;2023-07-24T12:19:25;95470.16;;;18.49;100.00
58385;BME280;44185;47.844;8.966;2023-07-24T12:21:51;95477.03;;;18.78;100.00
58385;BME280;44185;47.844;8.966;2023-07-24T12:24:16;95479.53;;;18.94;100.00
58385;BME280;44185;47.844;8.966;2023-07-24T12:26:42;95481.34;;;18.79;100.00
58385;BME280;44185;47.844;8.966;2023-07-24T12:29:07;95473.31;;;18.79;100.00
58385;BME280;44185;47.844;8.966;2023-07-24T12:31:34;95466.16;;;19.21;100.00
58385;BME280;44185;47.844;8.966;2023-07-24T12:34:00;95464.09;;;19.37;100.00
58385;BME280;44185;47.844;8.966;2023-07-24T12:36:25;95456.22;;;19.69;100.00
58385;BME280;44185;47.844;8.966;2023-07-24T12:38:50;95448.41;;;19.47;100.00
58385;BME280;44185;47.844;8.966;2023-07-24T12:41:16;95447.56;;;19.60;100.00
58385;BME280;44185;47.844;8.966;2023-07-24T12:43:42;95461.59;;;19.62;100.00
58385;BME280;44185;47.844;8.966;2023-07-24T12:46:08;95476.78;;;20.03;100.00
58385;BME280;44185;47.844;8.966;2023-07-24T12:48:35;95476.00;;;19.82;100.00